92B weather

Long Lake Seaplane Base
Sinclair, Maine, United States

Public forecast

Using degrees Fahrenheit for public forecast. Weather courtesy of forecast.io.

Closest aviation weather report (METAR) to Long Lake Seaplane Base

Closest report is Northern Aroostook Regional Airport, 6.5 nm (12.0 km) NNW. Retrieved 2020/04/04 11:40 UTC (11 minutes ago):

KFVE 041140Z AUTO 06004KT 10SM SCT012 OVC044 M01/M04 A3011 RMK AO2 T10061039

Closest aviation forecast (TAF) to Long Lake Seaplane Base

Closest forecast is Northern Aroostook Regional Airport, 6.5 nm (12.0 km) NNW. Retrieved 2020/04/04 06:48 UTC (5 hours ago):

TAF KFVE 040545Z 0406/0506 06012G18KT P6SM OVC040 FM040800 04008KT P6SM BKN020 FM042200 00000KT P6SM BKN024